Time;durP1;ratioP1;P1;durP2;ratioP2;P2;SDS_P1;SDS_P2;PMS_P1;PMS_P2;Temp;Humidity;BMP_temperature;BMP_pressure;BME280_temperature;BME280_humidity;BME280_pressure;Samples;Min_cycle;Max_cycle;Signal;HPM_P1;HPM_P2
2024/01/14 00:01:18;;;;;;;9.52;1.88;;;;;;;-146.27;86.78;42084.84;5067573;28;20145;-75
2024/01/14 00:03:43;;;;;;;3.93;1.50;;;;;;;-146.27;87.06;42059.00;5067627;28;20055;-75
2024/01/14 00:06:09;;;;;;;8.50;1.77;;;;;;;-146.27;87.39;42070.94;5062837;28;20059;-75
2024/01/14 00:08:35;;;;;;;7.55;1.92;;;;;;;-146.27;87.32;42039.13;5062449;28;20025;-74
2024/01/14 00:11:00;;;;;;;10.18;2.13;;;;;;;-146.27;87.51;42035.16;5064349;28;20043;-75
2024/01/14 00:13:25;;;;;;;14.15;2.05;;;;;;;-146.27;87.46;42078.88;5064594;28;20032;-75
2024/01/14 00:15:51;;;;;;;3.97;2.10;;;;;;;-146.27;87.88;41987.41;5067603;28;20042;-75
2024/01/14 00:18:16;;;;;;;5.65;2.38;;;;;;;-146.27;87.46;42039.13;5068947;28;20029;-74
2024/01/14 00:20:42;;;;;;;8.68;2.25;;;;;;;-146.27;87.80;42017.25;5067722;28;20622;-74
2024/01/14 00:23:07;;;;;;;9.45;2.00;;;;;;;-146.27;87.27;42007.31;5058877;28;20037;-75
2024/01/14 00:25:33;;;;;;;11.75;2.85;;;;;;;-146.27;87.38;42019.22;5068059;28;20024;-75
2024/01/14 00:27:58;;;;;;;9.05;2.75;;;;;;;-146.27;87.27;42043.09;5055717;28;20012;-75
2024/01/14 00:30:24;;;;;;;11.52;2.20;;;;;;;-146.27;87.02;42013.28;5067498;28;20055;-75
2024/01/14 00:32:49;;;;;;;11.68;2.10;;;;;;;-146.27;87.43;42015.25;5066449;28;20468;-75
2024/01/14 00:35:14;;;;;;;9.05;2.05;;;;;;;-146.27;88.03;42009.28;5065087;28;20043;-75
2024/01/14 00:37:41;;;;;;;7.05;2.22;;;;;;;-146.27;88.35;42011.28;5065856;28;20025;-74
2024/01/14 00:40:07;;;;;;;9.90;2.55;;;;;;;-146.27;88.56;41967.53;5068713;28;20028;-75
2024/01/14 00:42:33;;;;;;;6.22;2.22;;;;;;;-146.27;89.30;41995.38;5060881;28;20037;-75
2024/01/14 00:44:58;;;;;;;17.77;3.78;;;;;;;-146.27;90.43;41963.56;5067820;28;20037;-75
2024/01/14 00:47:24;;;;;;;6.40;2.90;;;;;;;-146.27;89.70;41973.50;5058707;28;20037;-75
2024/01/14 00:49:49;;;;;;;7.20;2.90;;;;;;;-146.27;90.12;41991.41;5062824;28;20025;-75
2024/01/14 00:52:14;;;;;;;11.88;3.38;;;;;;;-146.27;90.11;41957.59;5064161;28;20020;-75
2024/01/14 00:54:40;;;;;;;10.20;2.60;;;;;;;-146.27;88.97;41965.53;5068645;28;20552;-74
2024/01/14 00:57:07;;;;;;;7.78;3.10;;;;;;;-146.27;88.89;41973.50;5065059;28;20076;-75
2024/01/14 00:59:33;;;;;;;9.93;3.72;;;;;;;-146.27;88.27;42051.06;5064438;28;20032;-75
2024/01/14 01:01:58;;;;;;;13.40;3.22;;;;;;;-146.27;87.82;42021.22;5062597;28;20032;-75
2024/01/14 01:04:24;;;;;;;13.00;3.95;;;;;;;-146.27;87.65;42027.19;5060582;28;20020;-75
2024/01/14 01:06:49;;;;;;;8.73;3.70;;;;;;;-146.27;87.16;42015.25;5064424;28;20020;-74
2024/01/14 01:09:15;;;;;;;9.90;3.70;;;;;;;-146.27;87.68;42094.81;5066081;28;20043;-75
2024/01/14 01:11:40;;;;;;;12.75;3.63;;;;;;;-146.27;87.16;42070.94;5067279;28;20496;-75
2024/01/14 01:14:06;;;;;;;8.68;3.40;;;;;;;-146.27;86.81;42066.97;5064299;28;20036;-75
2024/01/14 01:16:31;;;;;;;7.03;3.20;;;;;;;-146.27;86.75;42118.66;5066640;28;20429;-74
2024/01/14 01:18:56;;;;;;;20.73;4.13;;;;;;;-146.27;86.45;42124.63;5066216;28;20110;-74
2024/01/14 01:21:22;;;;;;;10.38;4.32;;;;;;;-146.27;86.03;42112.69;5066191;28;20048;-75
2024/01/14 01:23:48;;;;;;;8.52;3.70;;;;;;;-146.27;86.08;42168.38;5068754;28;20073;-75
2024/01/14 01:26:14;;;;;;;13.02;4.20;;;;;;;-146.27;85.51;42170.38;5067713;28;20504;-74
2024/01/14 01:28:39;;;;;;;11.63;3.92;;;;;;;-146.27;85.68;42202.19;5067463;28;20040;-74
2024/01/14 01:31:05;;;;;;;17.00;4.07;;;;;;;-146.27;84.86;42200.19;5066455;28;20070;-75
2024/01/14 01:33:30;;;;;;;9.05;3.60;;;;;;;-146.27;84.90;42230.03;5060514;28;21929;-74
2024/01/14 01:35:55;;;;;;;12.98;4.28;;;;;;;-146.27;84.78;42194.22;5064961;28;20047;-74
2024/01/14 01:38:21;;;;;;;16.75;4.20;;;;;;;-146.27;84.88;42204.16;5062996;28;20031;-74
2024/01/14 01:40:48;;;;;;;7.22;3.70;;;;;;;-146.27;84.10;42210.13;5066164;28;20032;-75
2024/01/14 01:43:13;;;;;;;9.60;3.90;;;;;;;-146.27;83.98;42263.81;5057794;28;20617;-74
2024/01/14 01:45:38;;;;;;;7.15;3.58;;;;;;;-146.27;84.42;42245.94;5065843;28;20133;-74
2024/01/14 01:48:05;;;;;;;6.88;3.50;;;;;;;-146.27;83.73;42289.69;5059296;28;20039;-75
2024/01/14 01:50:33;;;;;;;10.27;3.60;;;;;;;-146.27;83.84;42285.72;5067968;28;20039;-74
2024/01/14 01:52:59;;;;;;;10.82;3.70;;;;;;;-146.27;83.66;42293.66;5056227;28;20036;-75
2024/01/14 01:55:25;;;;;;;7.88;3.88;;;;;;;-146.27;84.16;42305.59;5066095;28;20032;-74
2024/01/14 01:57:50;;;;;;;9.10;3.50;;;;;;;-146.27;84.24;42271.78;5068979;28;20542;-74
2024/01/14 02:00:16;;;;;;;9.80;3.90;;;;;;;-146.27;84.31;42321.50;5065550;28;20032;-74
2024/01/14 02:02:42;;;;;;;6.05;3.83;;;;;;;-146.27;85.13;42345.38;5055601;28;20610;-75
2024/01/14 02:05:08;;;;;;;9.13;4.43;;;;;;;-146.27;84.47;42299.63;5065169;28;20021;-74
2024/01/14 02:07:34;;;;;;;8.55;3.92;;;;;;;-146.27;84.32;42335.41;5066973;28;20029;-75
2024/01/14 02:10:00;;;;;;;11.73;4.00;;;;;;;-146.27;84.07;42361.28;5067021;28;20047;-74
2024/01/14 02:12:26;;;;;;;17.42;4.97;;;;;;;-146.27;84.34;42341.38;5068217;28;20099;-74
2024/01/14 02:14:51;;;;;;;10.18;5.03;;;;;;;-146.27;85.66;42371.22;5069649;28;20060;-74
2024/01/14 02:17:16;;;;;;;11.57;5.57;;;;;;;-146.27;86.13;42313.53;5069805;28;20081;-75
2024/01/14 02:19:42;;;;;;;13.25;5.53;;;;;;;-146.27;85.90;42321.50;5071148;28;20155;-74
2024/01/14 02:22:11;;;;;;;14.80;4.80;;;;;;;-146.27;85.86;42317.53;5072582;28;20044;-74
2024/01/14 02:24:38;;;;;;;13.35;4.72;;;;;;;-146.27;85.12;42293.66;5071378;28;20020;-75
2024/01/14 02:27:04;;;;;;;12.77;5.20;;;;;;;-146.27;86.09;42287.69;5071093;28;20055;-75
2024/01/14 02:29:29;;;;;;;14.05;4.70;;;;;;;-146.27;85.63;42247.91;5068970;28;20451;-75
2024/01/14 02:31:56;;;;;;;12.45;5.03;;;;;;;-146.27;85.37;42273.78;5065934;28;20017;-74
2024/01/14 02:34:23;;;;;;;10.00;4.03;;;;;;;-146.27;85.03;42315.53;5070075;28;20483;-74
2024/01/14 02:36:48;;;;;;;6.85;2.90;;;;;;;-146.27;84.62;42335.41;5069562;28;20028;-74
2024/01/14 02:39:16;;;;;;;2.92;2.00;;;;;;;-146.27;84.18;42353.31;5066946;28;20031;-74
2024/01/14 02:41:42;;;;;;;4.75;2.25;;;;;;;-146.27;83.84;42409.00;5070223;28;20447;-74
2024/01/14 02:44:07;;;;;;;3.90;1.77;;;;;;;-146.27;83.58;42409.00;5073758;28;20056;-74
2024/01/14 02:46:33;;;;;;;3.38;1.77;;;;;;;-146.27;83.03;42436.84;5069757;28;20024;-74
2024/01/14 02:48:58;;;;;;;8.90;1.90;;;;;;;-146.27;82.77;42420.94;5062755;28;20052;-74
2024/01/14 02:51:24;;;;;;;6.75;1.45;;;;;;;-146.27;82.44;42474.63;5069140;28;20046;-75
2024/01/14 02:53:49;;;;;;;7.15;2.20;;;;;;;-146.27;82.38;42496.50;5069718;28;20031;-74
2024/01/14 02:56:15;;;;;;;5.88;1.45;;;;;;;-146.27;82.34;42522.38;5069605;28;20031;-74
2024/01/14 02:58:40;;;;;;;3.80;1.52;;;;;;;-146.27;82.72;42534.28;5065855;28;20029;-74
2024/01/14 03:01:05;;;;;;;8.10;2.35;;;;;;;-146.27;82.56;42516.41;5068989;28;20035;-75
2024/01/14 03:03:31;;;;;;;3.30;1.38;;;;;;;-146.27;82.29;42516.41;5067000;28;20042;-74
2024/01/14 03:05:57;;;;;;;5.05;1.42;;;;;;;-146.27;82.45;42526.34;5070074;28;20114;-75
2024/01/14 03:08:22;;;;;;;3.85;1.10;;;;;;;-146.27;82.47;42540.25;5069629;28;20028;-74
2024/01/14 03:10:47;;;;;;;10.45;2.20;;;;;;;-146.27;82.49;42536.28;5070387;28;20564;-74
2024/01/14 03:13:15;;;;;;;3.70;1.50;;;;;;;-146.27;82.61;42552.19;5068666;28;20071;-75
2024/01/14 03:15:44;;;;;;;5.28;2.10;;;;;;;-146.27;82.45;42544.25;5069953;28;20032;-74
2024/01/14 03:18:09;;;;;;;7.35;1.73;;;;;;;-146.27;82.62;42528.31;5064763;28;20025;-75
2024/01/14 03:20:35;;;;;;;5.00;1.52;;;;;;;-146.27;82.66;42554.19;5067437;28;20028;-74
2024/01/14 03:23:00;;;;;;;3.50;1.15;;;;;;;-146.27;82.65;42564.13;5064403;28;20032;-75
2024/01/14 03:25:26;;;;;;;8.82;1.75;;;;;;;-146.27;82.38;42560.16;5069260;28;20038;-74
2024/01/14 03:27:51;;;;;;;10.00;1.35;;;;;;;-146.27;82.33;42544.25;5069632;28;20082;-74
2024/01/14 03:30:18;;;;;;;2.70;1.48;;;;;;;-146.27;82.85;42572.09;5066907;28;20020;-74
2024/01/14 03:32:43;;;;;;;11.10;2.00;;;;;;;-146.27;83.23;42556.16;5067554;28;20465;-74
2024/01/14 03:35:08;;;;;;;1.92;1.33;;;;;;;-146.27;83.01;42536.28;5062665;28;20048;-75
2024/01/14 03:37:34;;;;;;;8.68;2.28;;;;;;;-146.27;83.04;42570.09;5065785;28;20544;-74
2024/01/14 03:40:01;;;;;;;8.15;2.08;;;;;;;-146.27;83.39;42576.06;5068117;28;20383;-74
2024/01/14 03:42:26;;;;;;;10.27;2.25;;;;;;;-146.27;83.53;42554.19;5070611;28;20032;-74
2024/01/14 03:44:52;;;;;;;8.18;1.63;;;;;;;-146.27;83.78;42546.22;5067685;28;20400;-75
2024/01/14 03:47:18;;;;;;;3.85;1.40;;;;;;;-146.27;83.99;42528.31;5066599;28;20663;-74
2024/01/14 03:49:43;;;;;;;6.68;1.75;;;;;;;-146.27;83.65;42532.31;5069052;28;20028;-74
2024/01/14 03:52:08;;;;;;;6.93;1.90;;;;;;;-146.27;84.05;42532.31;5068890;28;20020;-74
2024/01/14 03:54:35;;;;;;;5.10;2.08;;;;;;;-146.27;84.03;42488.56;5070313;28;20484;-75
2024/01/14 03:57:00;;;;;;;6.15;2.05;;;;;;;-146.27;84.10;42540.25;5065592;28;20032;-74
2024/01/14 03:59:25;;;;;;;5.72;1.80;;;;;;;-146.27;84.31;42520.38;5069509;28;20106;-74
2024/01/14 04:01:51;;;;;;;14.27;5.57;;;;;;;-146.27;84.94;42496.50;5069037;28;20086;-74
2024/01/14 04:04:16;;;;;;;19.08;8.45;;;;;;;-146.27;85.25;42440.81;5069074;28;20371;-74
2024/01/14 04:06:42;;;;;;;23.65;10.90;;;;;;;-146.27;84.91;42462.69;5066587;28;20028;-74
2024/01/14 04:09:08;;;;;;;29.98;13.38;;;;;;;-146.27;85.80;42464.69;5059427;28;20033;-74
2024/01/14 04:11:33;;;;;;;28.77;13.25;;;;;;;-146.27;86.37;42452.75;5059979;28;20374;-75
2024/01/14 04:13:59;;;;;;;34.33;15.00;;;;;;;-146.27;86.52;42452.75;5057767;28;20028;-74
2024/01/14 04:16:24;;;;;;;33.60;14.93;;;;;;;-146.27;86.82;42416.97;5066101;28;20024;-74
2024/01/14 04:18:49;;;;;;;34.75;14.93;;;;;;;-146.27;86.84;42389.13;5067737;28;20034;-74
2024/01/14 04:21:22;;;;;;;40.45;15.25;;;;;;;-146.27;86.32;42389.13;5065232;28;20116;-74
2024/01/14 04:23:47;;;;;;;40.90;15.88;;;;;;;-146.27;86.74;42401.06;5064249;28;20047;-75
2024/01/14 04:26:13;;;;;;;38.22;15.30;;;;;;;-146.27;86.97;42412.97;5067510;28;20029;-74
2024/01/14 04:28:38;;;;;;;37.15;16.05;;;;;;;-146.27;87.08;42397.06;5068758;28;20059;-74
2024/01/14 04:31:04;;;;;;;33.22;15.50;;;;;;;-146.27;86.36;42409.00;5065439;28;20386;-75
2024/01/14 04:33:29;;;;;;;40.22;17.02;;;;;;;-146.27;86.92;42395.09;5064497;28;20568;-74
2024/01/14 04:35:55;;;;;;;39.40;17.23;;;;;;;-146.27;87.18;42454.75;5067465;28;20016;-74
2024/01/14 04:38:20;;;;;;;39.58;17.88;;;;;;;-146.27;86.97;42428.88;5068584;28;20032;-74
2024/01/14 04:40:46;;;;;;;40.25;16.38;;;;;;;-146.27;87.60;42405.03;5064389;28;20035;-73
2024/01/14 04:43:11;;;;;;;37.75;17.17;;;;;;;-146.27;88.05;42409.00;5070452;28;20368;-74
2024/01/14 04:45:37;;;;;;;37.30;16.90;;;;;;;-146.27;88.54;42375.19;5064850;28;20037;-74
2024/01/14 04:48:03;;;;;;;41.65;17.58;;;;;;;-146.27;88.43;42373.22;5065905;28;20036;-74
2024/01/14 04:50:28;;;;;;;42.63;18.20;;;;;;;-146.27;89.57;42349.34;5067950;28;20020;-73
2024/01/14 04:52:54;;;;;;;46.08;17.90;;;;;;;-146.27;89.26;42333.44;5067067;28;20130;-74
2024/01/14 04:55:19;;;;;;;40.22;16.42;;;;;;;-146.27;89.47;42337.41;5066506;28;20052;-74
2024/01/14 04:57:45;;;;;;;41.70;16.55;;;;;;;-146.27;89.47;42297.63;5065533;28;20126;-74
2024/01/14 05:00:12;;;;;;;36.45;17.30;;;;;;;-146.27;89.20;42321.50;5060167;28;20473;-74
2024/01/14 05:02:37;;;;;;;41.28;17.23;;;;;;;-146.27;89.14;42361.28;5060117;28;20111;-74
2024/01/14 05:05:03;;;;;;;41.15;16.83;;;;;;;-146.27;89.86;42341.38;5067161;28;20095;-75
2024/01/14 05:07:29;;;;;;;36.25;16.42;;;;;;;-146.27;89.21;42307.56;5067693;28;20491;-74
2024/01/14 05:09:54;;;;;;;45.00;18.02;;;;;;;-146.27;90.89;42353.31;5067516;28;20028;-74
2024/01/14 05:12:19;;;;;;;37.25;16.63;;;;;;;-146.27;90.56;42299.63;5067889;28;20024;-74
2024/01/14 05:14:45;;;;;;;41.70;17.42;;;;;;;-146.27;90.58;42293.66;5064806;28;20028;-75
2024/01/14 05:17:10;;;;;;;46.75;18.35;;;;;;;-146.27;91.04;42331.44;5067603;28;20048;-74
2024/01/14 05:19:40;;;;;;;47.42;19.00;;;;;;;-146.27;90.75;42313.53;5066388;28;20116;-74
2024/01/14 05:22:05;;;;;;;38.15;18.23;;;;;;;-146.27;90.47;42287.69;5067629;28;20132;-74
2024/01/14 05:24:31;;;;;;;42.10;17.58;;;;;;;-146.27;90.39;42289.69;5067033;28;20523;-74
2024/01/14 05:26:56;;;;;;;48.58;18.90;;;;;;;-146.27;90.69;42305.59;5067210;28;20424;-74
2024/01/14 05:29:21;;;;;;;42.22;18.63;;;;;;;-146.27;90.50;42305.59;5062490;28;20086;-74
2024/01/14 05:31:47;;;;;;;45.90;19.20;;;;;;;-146.27;90.10;42289.69;5067702;28;20462;-74
2024/01/14 05:34:13;;;;;;;42.53;18.88;;;;;;;-146.27;90.13;42357.28;5061009;28;20025;-74
2024/01/14 05:36:38;;;;;;;47.55;18.80;;;;;;;-146.27;90.98;42339.41;5063633;28;20051;-74
2024/01/14 05:39:04;;;;;;;47.13;20.00;;;;;;;-146.27;91.46;42311.56;5070346;28;20074;-74
2024/01/14 05:41:30;;;;;;;61.78;20.70;;;;;;;-146.27;91.39;42321.50;5069451;28;20033;-74
2024/01/14 05:43:56;;;;;;;48.15;18.83;;;;;;;-146.27;91.90;42305.59;5068409;28;20036;-74
2024/01/14 05:46:21;;;;;;;43.78;20.15;;;;;;;-146.27;91.66;42271.78;5066791;28;20027;-74
2024/01/14 05:48:47;;;;;;;55.72;21.08;;;;;;;-146.27;91.24;42273.78;5071960;28;20033;-74
2024/01/14 05:51:13;;;;;;;48.92;19.65;;;;;;;-146.27;91.15;42263.81;5070154;28;20020;-74
2024/01/14 05:53:38;;;;;;;56.88;20.92;;;;;;;-146.27;91.39;42285.72;5070566;28;20166;-74
2024/01/14 05:56:04;;;;;;;49.75;21.35;;;;;;;-146.27;91.45;42297.63;5066324;28;20542;-72
2024/01/14 05:58:29;;;;;;;57.50;22.05;;;;;;;-146.27;92.12;42265.81;5073355;28;20039;-74
2024/01/14 06:00:55;;;;;;;54.92;22.02;;;;;;;-146.27;92.09;42263.81;5071891;28;20381;-74
2024/01/14 06:03:20;;;;;;;57.17;21.15;;;;;;;-146.27;92.52;42269.78;5071919;28;20032;-74
2024/01/14 06:05:46;;;;;;;54.20;21.20;;;;;;;-146.27;92.20;42222.06;5071097;28;20028;-74
2024/01/14 06:08:11;;;;;;;50.90;21.27;;;;;;;-146.27;92.31;42245.94;5071937;28;20507;-74
2024/01/14 06:10:37;;;;;;;58.95;21.55;;;;;;;-146.27;92.31;42249.91;5070036;28;20033;-75
2024/01/14 06:13:02;;;;;;;54.70;21.45;;;;;;;-146.27;92.31;42245.94;5070773;28;20020;-74
2024/01/14 06:15:28;;;;;;;54.00;21.52;;;;;;;-146.27;92.74;42277.75;5069429;28;20090;-74
2024/01/14 06:17:53;;;;;;;69.43;22.10;;;;;;;-146.27;92.25;42249.91;5070077;28;20036;-75
2024/01/14 06:20:19;;;;;;;52.60;20.67;;;;;;;-146.27;92.17;42222.06;5068625;28;20031;-75
2024/01/14 06:22:44;;;;;;;49.45;21.70;;;;;;;-146.27;91.74;42241.97;5068881;28;20033;-74
2024/01/14 06:25:10;;;;;;;57.53;22.00;;;;;;;-146.27;91.56;42232.00;5070171;28;20046;-74
2024/01/14 06:27:35;;;;;;;58.20;22.48;;;;;;;-146.27;91.39;42204.16;5065612;28;20059;-74
2024/01/14 06:30:02;;;;;;;57.72;21.77;;;;;;;-146.27;92.72;42257.88;5069943;28;20070;-73
2024/01/14 06:32:28;;;;;;;53.60;20.92;;;;;;;-146.27;92.29;42269.78;5064867;28;20558;-74
2024/01/14 06:34:53;;;;;;;58.75;22.45;;;;;;;-146.27;92.49;42200.19;5069015;28;20021;-75
2024/01/14 06:37:18;;;;;;;59.25;22.00;;;;;;;-146.27;91.80;42202.19;5063005;28;20070;-74
2024/01/14 06:39:44;;;;;;;60.30;22.05;;;;;;;-146.27;91.83;42208.16;5064766;28;20020;-73
2024/01/14 06:42:10;;;;;;;60.03;22.17;;;;;;;-146.27;91.49;42243.94;5071249;28;20036;-74
2024/01/14 06:44:38;;;;;;;56.10;22.15;;;;;;;-146.27;91.21;42247.91;5071802;28;20020;-74
2024/01/14 06:47:03;;;;;;;51.80;19.83;;;;;;;-146.27;91.69;42236.00;5072787;28;20447;-74
2024/01/14 06:49:29;;;;;;;60.75;20.45;;;;;;;-146.27;91.65;42222.06;5069019;28;20099;-74
2024/01/14 06:51:54;;;;;;;49.20;20.05;;;;;;;-146.27;91.45;42226.03;5070892;28;20024;-74
2024/01/14 06:54:20;;;;;;;55.85;21.30;;;;;;;-146.27;91.74;42222.06;5071548;28;20020;-74
2024/01/14 06:56:46;;;;;;;55.70;21.42;;;;;;;-146.27;92.45;42287.69;5070504;28;20086;-74
2024/01/14 06:59:20;;;;;;;56.00;19.88;;;;;;;-146.27;92.47;42226.03;5068332;28;20033;-74
2024/01/14 07:01:46;;;;;;;55.78;20.90;;;;;;;-146.27;92.01;42228.03;5070804;28;20028;-73
2024/01/14 07:04:12;;;;;;;54.55;20.38;;;;;;;-146.27;91.62;42200.19;5070314;28;20140;-75
2024/01/14 07:06:38;;;;;;;54.00;21.35;;;;;;;-146.27;91.80;42222.06;5072245;28;20060;-74
2024/01/14 07:09:04;;;;;;;60.60;20.63;;;;;;;-146.27;91.59;42214.13;5071638;28;20050;-74
2024/01/14 07:11:29;;;;;;;57.47;19.88;;;;;;;-146.27;91.57;42212.13;5069587;28;20039;-74
2024/01/14 07:13:55;;;;;;;49.83;19.77;;;;;;;-146.27;91.48;42239.97;5066471;28;20024;-75
2024/01/14 07:16:20;;;;;;;51.88;21.15;;;;;;;-146.27;91.55;42212.13;5067879;28;20052;-74
2024/01/14 07:18:46;;;;;;;50.78;20.42;;;;;;;-146.27;91.17;42230.03;5059291;28;20028;-74
2024/01/14 07:21:11;;;;;;;57.65;20.48;;;;;;;-146.27;91.15;42190.25;5067602;28;20066;-73
2024/01/14 07:23:40;;;;;;;48.25;20.25;;;;;;;-146.27;91.72;42218.09;5064846;28;20050;-73
2024/01/14 07:26:13;;;;;;;56.00;21.73;;;;;;;-146.27;91.66;42226.03;5066618;28;20024;-75
2024/01/14 07:28:38;;;;;;;58.95;21.58;;;;;;;-146.27;92.38;42230.03;5066684;28;20028;-74
2024/01/14 07:31:03;;;;;;;56.38;20.77;;;;;;;-146.27;92.75;42224.06;5061985;28;20401;-74
2024/01/14 07:33:29;;;;;;;58.17;20.83;;;;;;;-146.27;92.75;42194.22;5061299;28;20021;-75
2024/01/14 07:35:56;;;;;;;58.10;21.10;;;;;;;-146.27;92.18;42168.38;5066655;28;20037;-74
2024/01/14 07:38:21;;;;;;;56.38;21.67;;;;;;;-146.27;91.23;42174.34;5066922;28;20036;-74
2024/01/14 07:40:46;;;;;;;46.97;19.30;;;;;;;-146.27;91.79;42174.34;5067912;28;20028;-74
2024/01/14 07:43:12;;;;;;;51.72;20.40;;;;;;;-146.27;92.58;42210.13;5062266;28;20107;-74
2024/01/14 07:45:37;;;;;;;54.28;19.80;;;;;;;-146.27;92.21;42194.22;5061094;28;20512;-74
2024/01/14 07:48:03;;;;;;;50.75;19.63;;;;;;;-146.27;91.73;42202.19;5064100;28;20028;-74
2024/01/14 07:50:28;;;;;;;59.10;19.15;;;;;;;-146.27;92.30;42220.06;5067620;28;20826;-74
2024/01/14 07:52:53;;;;;;;54.50;19.67;;;;;;;-146.27;93.16;42222.06;5066283;28;20491;-74
2024/01/14 07:55:19;;;;;;;51.22;19.67;;;;;;;-146.27;93.09;42214.13;5064459;28;20020;-75
2024/01/14 07:57:44;;;;;;;50.90;20.50;;;;;;;-146.27;92.64;42186.28;5072974;28;20507;-75
2024/01/14 08:00:10;;;;;;;61.15;20.13;;;;;;;-146.27;93.23;42241.97;5075756;28;20052;-73
2024/01/14 08:02:35;;;;;;;49.95;19.20;;;;;;;-146.27;93.12;42190.25;5075075;28;20434;-75
2024/01/14 08:05:01;;;;;;;59.15;20.85;;;;;;;-146.27;93.23;42170.38;5067646;28;20043;-75
2024/01/14 08:07:26;;;;;;;64.22;21.40;;;;;;;-146.27;93.41;42230.03;5066997;28;20503;-74
2024/01/14 08:09:52;;;;;;;56.17;21.10;;;;;;;-146.27;92.92;42230.03;5056444;28;20031;-74
2024/01/14 08:12:17;;;;;;;65.32;21.58;;;;;;;-146.27;92.59;42255.88;5060568;28;20024;-74
2024/01/14 08:14:43;;;;;;;57.72;21.70;;;;;;;-146.27;93.37;42305.59;5063156;28;20028;-74
2024/01/14 08:17:08;;;;;;;58.45;20.15;;;;;;;-146.27;92.72;42281.72;5061866;28;20494;-74
2024/01/14 08:19:33;;;;;;;54.53;22.33;;;;;;;-146.27;93.21;42277.75;5068047;28;20111;-74
2024/01/14 08:21:58;;;;;;;60.20;20.85;;;;;;;-146.27;92.52;42293.66;5065006;28;20041;-74
2024/01/14 08:24:24;;;;;;;61.60;22.58;;;;;;;-146.27;92.75;42313.53;5063719;28;20384;-73
2024/01/14 08:26:49;;;;;;;58.20;21.25;;;;;;;-146.27;93.62;42321.50;5060404;28;20796;-74
2024/01/14 08:29:15;;;;;;;65.03;23.95;;;;;;;-146.27;93.76;42343.38;5064427;28;20582;-74
2024/01/14 08:31:41;;;;;;;54.90;22.50;;;;;;;-146.27;93.20;42287.69;5063370;28;20111;-74
2024/01/14 08:34:09;;;;;;;59.42;22.92;;;;;;;-146.27;92.16;42321.50;5061151;28;20049;-74
2024/01/14 08:36:36;;;;;;;53.38;21.95;;;;;;;-146.27;92.42;42333.44;5061787;28;20547;-74
2024/01/14 08:39:01;;;;;;;71.40;25.15;;;;;;;-146.27;92.61;42333.44;5063336;28;20048;-74
2024/01/14 08:41:27;;;;;;;53.13;22.73;;;;;;;-146.27;92.60;42361.28;5063555;28;20048;-74
2024/01/14 08:43:53;;;;;;;63.55;22.95;;;;;;;-146.27;93.57;42385.13;5063291;28;20024;-74
2024/01/14 08:46:19;;;;;;;59.08;22.25;;;;;;;-146.27;93.36;42377.19;5082808;28;20028;-74
2024/01/14 08:48:44;;;;;;;68.88;24.90;;;;;;;-146.27;93.30;42373.22;5069395;28;20051;-74
2024/01/14 08:51:10;;;;;;;53.65;22.20;;;;;;;-146.27;92.64;42407.00;5069440;28;20075;-74
2024/01/14 08:53:35;;;;;;;62.22;23.00;;;;;;;-146.27;92.79;42416.97;5066832;28;20019;-74
2024/01/14 08:56:01;;;;;;;63.60;23.00;;;;;;;-146.27;94.26;42420.94;5085258;28;20104;-74
2024/01/14 08:58:26;;;;;;;64.18;24.17;;;;;;;-146.27;93.68;42422.94;5076164;28;20059;-73
2024/01/14 09:00:52;;;;;;;64.03;22.42;;;;;;;-146.27;93.69;42460.72;5070021;28;20149;-74
2024/01/14 09:03:17;;;;;;;60.55;24.15;;;;;;;-146.27;93.95;42480.59;5069705;28;20040;-74
2024/01/14 09:05:43;;;;;;;60.13;22.55;;;;;;;-146.27;94.13;42474.63;5073177;28;20472;-75
2024/01/14 09:08:09;;;;;;;55.63;20.48;;;;;;;-146.27;93.66;42492.53;5066039;28;20024;-74
2024/01/14 09:10:35;;;;;;;55.47;22.55;;;;;;;-146.27;93.60;42536.28;5064620;28;20032;-74
2024/01/14 09:13:00;;;;;;;63.47;22.70;;;;;;;-146.27;93.44;42504.47;5067567;28;20066;-74
2024/01/14 09:15:25;;;;;;;54.03;20.80;;;;;;;-146.27;94.14;42564.13;5052401;28;20025;-75
2024/01/14 09:17:51;;;;;;;52.65;20.00;;;;;;;-146.27;93.25;42524.34;5065739;28;20017;-74
2024/01/14 09:20:17;;;;;;;55.47;20.75;;;;;;;-146.27;92.86;42588.00;5058626;28;20823;-74
2024/01/14 09:22:42;;;;;;;60.42;21.95;;;;;;;-146.27;93.22;42580.03;5067978;28;20119;-75
2024/01/14 09:25:09;;;;;;;66.00;21.95;;;;;;;-146.27;93.52;42601.91;5067407;28;20102;-74
2024/01/14 09:27:35;;;;;;;55.08;21.85;;;;;;;-146.27;92.90;42584.00;5068752;28;20431;-74
2024/01/14 09:30:00;;;;;;;53.78;20.50;;;;;;;-146.27;92.15;42548.22;5068638;28;20020;-74
2024/01/14 09:32:26;;;;;;;65.07;21.30;;;;;;;-146.27;91.81;42524.34;5066592;28;20385;-74
2024/01/14 09:34:52;;;;;;;52.50;21.38;;;;;;;-146.27;92.58;42552.19;5060665;28;20032;-74
2024/01/14 09:37:17;;;;;;;57.42;21.70;;;;;;;-146.27;92.39;42611.84;5060793;28;20507;-74
2024/01/14 09:39:42;;;;;;;57.30;19.25;;;;;;;-146.27;92.32;42580.03;5066321;28;20037;-74
2024/01/14 09:42:34;;;;;;;53.70;20.77;;;;;;;-146.27;91.15;42574.06;5067636;28;20052;-73
2024/01/14 09:45:01;;;;;;;52.25;21.67;;;;;;;-146.27;91.37;42554.19;5064950;28;20034;-75
2024/01/14 09:47:28;;;;;;;54.53;21.33;;;;;;;-146.27;91.98;42619.81;5064012;28;20021;-73
2024/01/14 09:49:57;;;;;;;46.03;19.27;;;;;;;-146.27;92.61;42591.97;5068307;28;20131;-74
2024/01/14 09:52:24;;;;;;;56.00;21.70;;;;;;;-146.27;92.52;42605.88;5065303;28;20017;-73
2024/01/14 09:54:53;;;;;;;60.67;21.67;;;;;;;-146.27;91.93;42591.97;5067369;28;20036;-74
2024/01/14 09:57:20;;;;;;;52.80;20.17;;;;;;;-146.27;91.22;42615.84;5067199;28;20499;-74
2024/01/14 09:59:52;;;;;;;58.03;20.60;;;;;;;-146.27;91.39;42599.94;5067461;28;20078;-74
2024/01/14 10:02:19;;;;;;;57.08;21.52;;;;;;;-146.27;93.07;42653.63;5067061;28;20476;-74
2024/01/14 10:04:45;;;;;;;48.28;18.60;;;;;;;-146.27;92.15;42655.63;5067019;28;20369;-73
2024/01/14 10:07:11;;;;;;;55.30;20.50;;;;;;;-146.27;91.74;42629.75;5064566;28;20021;-73
2024/01/14 10:09:39;;;;;;;56.35;20.98;;;;;;;-146.27;92.29;42631.75;5066110;28;20032;-73
2024/01/14 10:12:10;;;;;;;59.13;21.05;;;;;;;-146.27;92.11;42655.63;5068516;28;20028;-74
2024/01/14 10:14:36;;;;;;;62.05;20.25;;;;;;;-146.27;91.98;42665.56;5068333;28;20035;-75
2024/01/14 10:17:02;;;;;;;47.05;17.45;;;;;;;-146.27;91.48;42639.69;5067158;28;20029;-74
2024/01/14 10:19:27;;;;;;;53.75;20.60;;;;;;;-146.27;91.65;42611.84;5064609;28;20028;-74
2024/01/14 10:21:54;;;;;;;52.38;20.15;;;;;;;-146.27;92.12;42605.88;5064177;28;20094;-74
2024/01/14 10:24:23;;;;;;;44.65;19.83;;;;;;;-146.27;91.00;42568.09;5066902;28;20044;-75
2024/01/14 10:26:53;;;;;;;47.35;19.90;;;;;;;-146.27;91.09;42595.94;5066401;28;20025;-74
2024/01/14 10:29:19;;;;;;;47.72;17.95;;;;;;;-146.27;91.16;42562.13;5071717;28;20029;-75
2024/01/14 10:31:44;;;;;;;54.15;21.10;;;;;;;-146.27;91.93;42582.03;5071915;28;20487;-74
2024/01/14 10:34:10;;;;;;;61.83;20.45;;;;;;;-146.27;90.93;42564.13;5068416;28;20495;-74
2024/01/14 10:36:36;;;;;;;65.88;20.52;;;;;;;-146.27;90.07;42580.03;5070206;28;20134;-74
2024/01/14 10:39:03;;;;;;;51.70;20.52;;;;;;;-146.27;90.37;42643.69;5072018;28;20029;-74
2024/01/14 10:41:28;;;;;;;55.13;20.17;;;;;;;-146.27;91.85;42667.53;5070976;28;20032;-74
2024/01/14 10:43:54;;;;;;;53.33;21.10;;;;;;;-146.27;91.31;42667.53;5088826;28;20028;-74
2024/01/14 10:46:26;;;;;;;55.88;20.17;;;;;;;-146.27;91.61;42687.44;5069641;28;20146;-75
2024/01/14 10:49:02;;;;;;;62.28;20.98;;;;;;;-146.27;91.24;42715.28;5059817;28;20567;-73
2024/01/14 10:51:32;;;;;;;55.85;19.92;;;;;;;-146.27;91.77;42725.22;5064716;28;20042;-74
2024/01/14 10:54:29;;;;;;;64.65;20.25;;;;;;;-146.27;91.45;42701.34;5068206;28;20031;-73
2024/01/14 10:57:22;;;;;;;57.40;19.45;;;;;;;-146.27;91.49;42701.34;5070597;28;20089;-76
2024/01/14 10:59:49;;;;;;;50.17;19.40;;;;;;;-146.27;91.30;42711.31;5071699;28;20089;-74
2024/01/14 11:02:17;;;;;;;48.67;19.65;;;;;;;-146.27;90.96;42723.22;5083666;28;20480;-74